Airfield :
LOGIN :

Register | Disclaimer

   EN    FR    IT 

 










Legend :    VFR   Marginal VFR   IFR   Intensive IFR   Very Intensive IFR
Visi :
Ceiling :
>= 8 km
>= 3000ft
5 to 8 km
1000 to 3000 ft
1500m to 5 km
500 to 1000 ft
800 to 1500m
200 to 500 ft
< 800m
< 200 ft
Symbols :   Thunderstorms  Fog  Heavy snow  Heavy precipitations  Wind > 20 kt
SIGMETs :     Misc.  Thunderstorms  Icing  Turbulence  Mountain Waves  Volcanic Ashes







- Airport Elevation : 194 ft
- IATA code : LME
- Download approach charts


LFRM - Le Mans

CURRENT METAR :
  • 112000Z AUTO 12005KT 9999 OVC006 04/04 Q1023

EXPIRED METARs :
  • 111930Z AUTO 11004KT 9000 OVC005 05/04 Q1024 TEMPO 0500 FG VV///
  • 111900Z AUTO 12004KT 090V150 8000 OVC004 05/04 Q1024 TEMPO 0500 FG VV///
  • 111830Z AUTO 12005KT 070V160 7000 OVC003 04/04 Q1024 TEMPO 0500 FG VV///
  • 111800Z AUTO 12005KT 080V170 6000 OVC003 05/04 Q1024 TEMPO 0500 FG VV///
  • 111730Z AUTO VRB02KT 3100 BR VV/// 05/05 Q1024 TEMPO 0500 FG

TAF AMD TAF LFRM
Valid from the 11 at 18:00 until the 12 at 12:00 UTC


111814Z 1118/1212 14005KT 6000 BKN004
TEMPO 1118/1206 0500 FG VV///
BECMG 1210/1212 SCT020
No reported NOTAMs for that airfield.



MET'MAP, your aeronautical weather chart ! - Copyright ORBIFLY December 2007 - Disclaimer

ORBIFLY MET'MAP TEAM :

Programming & Development : Alexandra Zaïnal
Concept & Development : Baudouin d'Aumeries
Co-Development & Prog : Marc-Olivier Méhu
Technical & hardware support : Manuel Goepfert

Contact : metmap@orbifly.com




SOURCES & CREDITS :

   NOAA